D82 weather

Ovid Airport
Ovid, New York, United States

Public forecast

Using degrees Fahrenheit for public forecast. Weather courtesy of forecast.io.

METAR (pilot weather report)

Closest report is Penn Yan Airport, 11.4 nm (21.1 km) W. Retrieved 2019/09/16 19:05 UTC (40 minutes ago):

KPEO 161905Z AUTO VRB03KT 10SM SCT023 21/14 A3011 RMK AO2 T02110144

TAF (pilot weather forecast)

Closest forecast is Ithaca Tompkins Regional Airport, 17.9 nm (33.1 km) ESE. Retrieved 2019/09/16 18:39 UTC (1 hour ago):

TAF KITH 161736Z 1618/1718 03005KT P6SM BKN018 FM161900 VRB02KT P6SM FEW035 FM171600 35006KT P6SM SKC